createdAt,value
2022-11-28T00:01:34.500Z,100415.66
2022-11-28T00:04:02.649Z,100412.44
2022-11-28T00:06:30.653Z,100410.97
2022-11-28T00:09:00.043Z,100414.62
2022-11-28T00:11:27.988Z,100413.50
2022-11-28T00:13:55.991Z,100420.44
2022-11-28T00:16:24.594Z,100410.47
2022-11-28T00:18:54.302Z,100416.59
2022-11-28T00:21:22.149Z,100414.19
2022-11-28T00:23:50.581Z,100413.91
2022-11-28T00:26:27.377Z,100406.34
2022-11-28T00:28:55.989Z,100418.88
2022-11-28T00:31:26.299Z,100421.34
2022-11-28T00:33:54.466Z,100422.66
2022-11-28T00:36:23.022Z,100424.22
2022-11-28T00:38:51.791Z,100426.28
2022-11-28T00:41:23.949Z,100428.62
2022-11-28T00:43:52.624Z,100427.37
2022-11-28T00:46:22.429Z,100429.25
2022-11-28T00:48:50.273Z,100428.38
2022-11-28T00:51:24.024Z,100435.59
2022-11-28T00:53:54.130Z,100430.25
2022-11-28T00:56:25.730Z,100437.75
2022-11-28T00:58:53.426Z,100432.03
2022-11-28T01:01:25.313Z,100428.25
2022-11-28T01:03:54.940Z,100433.78
2022-11-28T01:06:34.418Z,100433.47
2022-11-28T01:09:06.170Z,100424.91
2022-11-28T01:11:33.866Z,100428.88
2022-11-28T01:14:01.812Z,100422.91
2022-11-28T01:16:29.884Z,100426.63
2022-11-28T01:18:57.998Z,100421.69
2022-11-28T01:21:26.083Z,100421.84
2022-11-28T01:23:54.037Z,100421.59
2022-11-28T01:26:25.414Z,100418.62
2022-11-28T01:28:53.046Z,100418.25
2022-11-28T01:31:23.760Z,100422.41
2022-11-28T01:33:52.886Z,100424.22
2022-11-28T01:36:21.289Z,100423.97
2022-11-28T01:38:49.695Z,100427.44
2022-11-28T01:41:21.165Z,100428.25
2022-11-28T01:44:08.860Z,100428.81
2022-11-28T01:46:37.071Z,100426.06
2022-11-28T01:49:35.462Z,100422.19
2022-11-28T01:52:06.128Z,100414.22
2022-11-28T01:54:35.333Z,100418.72
2022-11-28T01:57:12.185Z,100408.03
2022-11-28T01:59:49.462Z,100408.59
2022-11-28T02:02:27.272Z,100398.22
2022-11-28T02:04:55.190Z,100397.59
2022-11-28T02:07:22.803Z,100396.47
2022-11-28T02:09:50.459Z,100385.56
2022-11-28T02:12:51.084Z,100391.09
2022-11-28T02:15:43.018Z,100389.03
2022-11-28T02:18:18.016Z,100380.56
2022-11-28T02:20:51.214Z,100384.03
2022-11-28T02:23:26.263Z,100384.75
2022-11-28T02:26:24.554Z,100375.63
2022-11-28T02:29:04.841Z,100372.91
2022-11-28T02:31:38.303Z,100379.84
2022-11-28T02:34:14.227Z,100363.75
2022-11-28T02:36:49.924Z,100368.63
2022-11-28T02:39:31.438Z,100369.63
2022-11-28T02:42:03.626Z,100374.72
2022-11-28T02:44:41.088Z,100370.28
2022-11-28T02:47:12.576Z,100366.37
2022-11-28T02:50:11.311Z,100362.34
2022-11-28T02:52:45.678Z,100368.50
2022-11-28T02:55:14.858Z,100360.19
2022-11-28T02:57:48.575Z,100365.84
2022-11-28T03:00:42.569Z,100356.59
2022-11-28T03:03:10.113Z,100352.56
2022-11-28T03:05:45.045Z,100351.22
2022-11-28T03:08:15.598Z,100352.19
2022-11-28T03:10:55.379Z,100353.19
2022-11-28T03:13:36.413Z,100345.13
2022-11-28T03:16:14.515Z,100346.03
2022-11-28T03:19:19.702Z,100349.41
2022-11-28T03:21:52.883Z,100348.09
2022-11-28T03:24:38.563Z,100340.19
2022-11-28T03:27:17.757Z,100349.00
2022-11-28T03:29:50.250Z,100342.25
2022-11-28T03:32:44.255Z,100340.41
2022-11-28T03:35:16.430Z,100339.13
2022-11-28T03:37:49.480Z,100337.97
2022-11-28T03:40:23.901Z,100339.66
2022-11-28T03:42:58.804Z,100331.72
2022-11-28T03:45:29.074Z,100330.84
2022-11-28T03:48:19.857Z,100335.22
2022-11-28T03:50:52.519Z,100332.66
2022-11-28T03:53:28.307Z,100330.25
2022-11-28T03:56:00.931Z,100319.13
2022-11-28T03:59:07.315Z,100318.44
2022-11-28T04:01:49.555Z,100306.53
2022-11-28T04:04:30.642Z,100300.28
2022-11-28T04:07:19.926Z,100289.84
2022-11-28T04:09:50.647Z,100290.03
2022-11-28T04:12:53.469Z,100293.63
2022-11-28T04:15:29.537Z,100292.69
2022-11-28T04:18:25.321Z,100277.00
2022-11-28T04:21:00.117Z,100274.69
2022-11-28T04:23:29.381Z,100281.13
2022-11-28T04:26:03.759Z,100276.03
2022-11-28T04:28:33.245Z,100280.41
2022-11-28T04:31:03.070Z,100270.87
2022-11-28T04:33:33.451Z,100266.44
2022-11-28T04:36:02.278Z,100270.87
2022-11-28T04:38:30.530Z,100267.28
2022-11-28T04:41:14.915Z,100270.78
2022-11-28T04:43:47.961Z,100270.87
2022-11-28T04:46:19.951Z,100265.13
2022-11-28T04:48:48.009Z,100269.97
2022-11-28T04:51:36.488Z,100267.78
2022-11-28T04:54:05.708Z,100267.56
2022-11-28T04:56:45.341Z,100257.09
2022-11-28T04:59:13.858Z,100262.12
2022-11-28T05:01:44.292Z,100262.97
2022-11-28T05:04:13.446Z,100260.78
2022-11-28T05:06:41.355Z,100263.47
2022-11-28T05:09:12.734Z,100261.75
2022-11-28T05:11:40.638Z,100259.03
2022-11-28T05:14:08.585Z,100269.06
2022-11-28T05:16:36.276Z,100264.59
2022-11-28T05:19:04.093Z,100257.56
2022-11-28T05:21:32.034Z,100267.22
2022-11-28T05:23:59.660Z,100255.56
2022-11-28T05:26:27.241Z,100256.09
2022-11-28T05:28:55.184Z,100268.38
2022-11-28T05:31:23.051Z,100263.06
2022-11-28T05:33:51.052Z,100265.97
2022-11-28T05:36:18.917Z,100267.00
2022-11-28T05:38:46.793Z,100267.06
2022-11-28T05:41:30.765Z,100269.38
2022-11-28T05:43:59.483Z,100270.03
2022-11-28T05:46:28.465Z,100267.50
2022-11-28T05:48:56.695Z,100261.81
2022-11-28T05:51:24.860Z,100272.03
2022-11-28T05:53:52.544Z,100266.12
2022-11-28T05:56:20.680Z,100272.03
2022-11-28T05:58:49.253Z,100269.72
2022-11-28T06:01:23.241Z,100281.09
2022-11-28T06:03:51.320Z,100288.00
2022-11-28T06:06:22.333Z,100283.19
2022-11-28T06:08:51.191Z,100288.25
2022-11-28T06:11:20.414Z,100286.88
2022-11-28T06:13:49.329Z,100295.19
2022-11-28T06:16:21.939Z,100301.41
2022-11-28T06:18:54.430Z,100299.06
2022-11-28T06:21:22.859Z,100289.41
2022-11-28T06:23:51.000Z,100298.59
2022-11-28T06:26:20.671Z,100295.41
2022-11-28T06:28:48.563Z,100299.75
2022-11-28T06:31:20.132Z,100296.59
2022-11-28T06:33:48.533Z,100295.31
2022-11-28T06:36:19.582Z,100297.66
2022-11-28T06:38:47.421Z,100293.28
2022-11-28T06:41:17.444Z,100280.25
2022-11-28T06:43:45.514Z,100289.41
2022-11-28T06:46:16.537Z,100282.28
2022-11-28T06:48:45.305Z,100287.59
2022-11-28T06:51:14.235Z,100285.00
2022-11-28T06:53:42.405Z,100295.81
2022-11-28T06:56:15.214Z,100296.75
2022-11-28T06:58:44.073Z,100308.00
2022-11-28T07:01:13.794Z,100307.59
2022-11-28T07:03:41.720Z,100310.81
2022-11-28T07:06:09.800Z,100307.84
2022-11-28T07:08:37.665Z,100318.47
2022-11-28T07:11:19.752Z,100318.78
2022-11-28T07:13:48.726Z,100318.72
2022-11-28T07:16:20.652Z,100323.19
2022-11-28T07:18:49.178Z,100318.97
2022-11-28T07:21:17.882Z,100323.09
2022-11-28T07:23:46.949Z,100322.75
2022-11-28T07:26:17.078Z,100317.03
2022-11-28T07:28:45.778Z,100313.62
2022-11-28T07:31:17.191Z,100316.47
2022-11-28T07:33:47.318Z,100318.06
2022-11-28T07:36:18.459Z,100325.34
2022-11-28T07:38:47.896Z,100319.88
2022-11-28T07:41:16.945Z,100318.16
2022-11-28T07:43:45.986Z,100324.41
2022-11-28T07:46:18.902Z,100318.28
2022-11-28T07:48:47.840Z,100315.25
2022-11-28T07:51:23.184Z,100312.84
2022-11-28T07:53:51.539Z,100308.37
2022-11-28T07:56:22.323Z,100308.44
2022-11-28T07:58:50.164Z,100303.00
2022-11-28T08:01:20.712Z,100305.19
2022-11-28T08:03:48.751Z,100292.69
2022-11-28T08:06:21.598Z,100292.44
2022-11-28T08:08:50.398Z,100290.12
2022-11-28T08:11:22.006Z,100286.44
2022-11-28T08:13:52.826Z,100285.84
2022-11-28T08:16:25.325Z,100287.22
2022-11-28T08:18:54.233Z,100282.94
2022-11-28T08:21:24.593Z,100285.81
2022-11-28T08:23:53.504Z,100282.38
2022-11-28T08:26:28.808Z,100277.94
2022-11-28T08:28:59.675Z,100287.94
2022-11-28T08:31:30.076Z,100278.38
2022-11-28T08:33:59.651Z,100283.97
2022-11-28T08:36:29.176Z,100285.31
2022-11-28T08:41:47.823Z,100292.44
2022-11-28T08:44:17.205Z,100290.09
2022-11-28T08:46:44.822Z,100292.38
2022-11-28T08:49:12.735Z,100286.19
2022-11-28T08:51:40.384Z,100290.97
2022-11-28T08:54:08.055Z,100290.84
2022-11-28T08:56:36.051Z,100283.53
2022-11-28T08:59:04.055Z,100285.81
2022-11-28T09:01:31.964Z,100286.59
2022-11-28T09:03:59.985Z,100282.78
2022-11-28T09:06:27.642Z,100287.19
2022-11-28T09:08:55.221Z,100292.13
2022-11-28T09:11:23.603Z,100292.75
2022-11-28T09:13:51.307Z,100291.25
2022-11-28T09:16:19.269Z,100291.75
2022-11-28T09:18:47.293Z,100293.50
2022-11-28T09:21:15.811Z,100291.91
2022-11-28T09:23:44.934Z,100293.16
2022-11-28T09:26:17.768Z,100283.88
2022-11-28T09:28:46.051Z,100274.94
2022-11-28T09:31:15.813Z,100276.62
2022-11-28T09:33:44.363Z,100266.31
2022-11-28T09:36:17.557Z,100267.94
2022-11-28T09:38:46.274Z,100270.25
2022-11-28T09:41:49.364Z,100272.00
2022-11-28T09:44:37.596Z,100268.34
2022-11-28T09:47:12.424Z,100255.62
2022-11-28T09:49:41.316Z,100253.59
2022-11-28T09:52:21.789Z,100250.16
2022-11-28T09:54:58.355Z,100245.47
2022-11-28T09:57:39.135Z,100233.56
2022-11-28T10:00:22.973Z,100245.78
2022-11-28T10:03:43.628Z,100241.41
2022-11-28T10:06:11.120Z,100228.53
2022-11-28T10:08:53.959Z,100239.31
2022-11-28T10:11:33.461Z,100235.56
2022-11-28T10:14:09.557Z,100240.13
2022-11-28T10:16:58.870Z,100232.66
2022-11-28T10:19:53.786Z,100239.78
2022-11-28T10:22:35.831Z,100236.75
2022-11-28T10:25:05.411Z,100233.69
2022-11-28T10:27:35.004Z,100235.28
2022-11-28T10:30:06.592Z,100228.53
2022-11-28T10:32:38.400Z,100225.75
2022-11-28T10:35:43.669Z,100231.94
2022-11-28T10:38:15.816Z,100226.53
2022-11-28T10:40:50.620Z,100218.69
2022-11-28T10:43:30.244Z,100211.59
2022-11-28T10:46:16.392Z,100211.47
2022-11-28T10:48:56.878Z,100211.13
2022-11-28T10:51:42.903Z,100193.66
2022-11-28T10:54:31.824Z,100195.78
2022-11-28T10:57:16.999Z,100193.81
2022-11-28T11:00:02.519Z,100188.63
2022-11-28T11:02:40.119Z,100189.19
2022-11-28T11:05:12.770Z,100178.28
2022-11-28T11:07:44.175Z,100169.41
2022-11-28T11:10:24.040Z,100169.44
2022-11-28T11:12:52.703Z,100165.25
2022-11-28T11:15:23.906Z,100166.56
2022-11-28T11:17:51.835Z,100167.69
2022-11-28T11:20:36.111Z,100169.00
2022-11-28T11:23:15.775Z,100167.16
2022-11-28T11:26:01.954Z,100165.38
2022-11-28T11:28:42.097Z,100165.19
2022-11-28T11:31:28.097Z,100166.59
2022-11-28T11:34:16.800Z,100173.09
2022-11-28T11:36:44.614Z,100163.16
2022-11-28T11:39:12.495Z,100162.19
2022-11-28T11:41:42.304Z,100157.81
2022-11-28T11:44:15.981Z,100156.91
2022-11-28T11:46:54.929Z,100156.19
2022-11-28T11:49:36.527Z,100154.50
2022-11-28T11:52:07.397Z,100154.81
2022-11-28T11:54:35.018Z,100159.81
2022-11-28T11:57:30.943Z,100154.16
2022-11-28T12:00:07.419Z,100152.81
2022-11-28T12:02:58.120Z,100143.66
2022-11-28T12:06:06.550Z,100147.59
2022-11-28T12:08:39.435Z,100147.16
2022-11-28T12:11:28.868Z,100142.19
2022-11-28T12:14:00.195Z,100145.78
2022-11-28T12:16:57.258Z,100144.59
2022-11-28T12:19:42.525Z,100144.75
2022-11-28T12:22:16.468Z,100141.09
2022-11-28T12:24:52.933Z,100140.69
2022-11-28T12:27:32.931Z,100144.47
2022-11-28T12:30:25.536Z,100141.00
2022-11-28T12:32:59.375Z,100143.06
2022-11-28T12:35:40.055Z,100139.94
2022-11-28T12:38:19.162Z,100140.38
2022-11-28T12:40:49.914Z,100149.06
2022-11-28T12:43:26.725Z,100151.59
2022-11-28T12:46:12.576Z,100142.34
2022-11-28T12:48:53.668Z,100143.66
2022-11-28T12:51:36.140Z,100143.31
2022-11-28T12:54:22.086Z,100136.31
2022-11-28T12:57:13.215Z,100135.75
2022-11-28T12:59:50.189Z,100135.06
2022-11-28T13:03:05.539Z,100135.72
2022-11-28T13:05:55.121Z,100138.06
2022-11-28T13:08:47.928Z,100128.28
2022-11-28T13:11:28.877Z,100124.72
2022-11-28T13:14:07.958Z,100130.59
2022-11-28T13:16:45.715Z,100129.84
2022-11-28T13:19:27.980Z,100127.72
2022-11-28T13:22:13.634Z,100129.47
2022-11-28T13:24:47.907Z,100124.66
2022-11-28T13:27:31.060Z,100126.81
2022-11-28T13:30:08.840Z,100130.78
2022-11-28T13:33:07.828Z,100123.09
2022-11-28T13:35:35.992Z,100124.78
2022-11-28T13:38:50.640Z,100124.28
2022-11-28T13:42:13.987Z,100119.84
2022-11-28T13:44:44.425Z,100126.38
2022-11-28T13:47:26.106Z,100122.06
2022-11-28T13:50:24.880Z,100119.19
2022-11-28T13:52:59.544Z,100124.72
2022-11-28T13:55:38.861Z,100123.13
2022-11-28T13:58:22.593Z,100118.03
2022-11-28T14:01:02.917Z,100128.09
2022-11-28T14:03:33.417Z,100129.59
2022-11-28T14:06:05.125Z,100123.06
2022-11-28T14:08:38.566Z,100127.38
2022-11-28T14:11:21.447Z,100118.16
2022-11-28T14:14:05.885Z,100120.34
2022-11-28T14:16:52.032Z,100123.03
2022-11-28T14:19:29.404Z,100116.56
2022-11-28T14:22:05.288Z,100106.59
2022-11-28T14:24:51.690Z,100111.22
2022-11-28T14:27:39.598Z,100109.06
2022-11-28T14:30:23.209Z,100116.19
2022-11-28T14:32:55.738Z,100110.06
2022-11-28T14:36:01.294Z,100098.56
2022-11-28T14:38:30.271Z,100107.00
2022-11-28T14:40:59.594Z,100093.72
2022-11-28T14:43:40.745Z,100103.53
2022-11-28T14:46:31.301Z,100099.41
2022-11-28T14:48:59.109Z,100096.91
2022-11-28T14:51:45.540Z,100096.69
2022-11-28T14:54:36.772Z,100097.69
2022-11-28T14:57:26.096Z,100099.34
2022-11-28T14:59:54.968Z,100093.78
2022-11-28T15:02:38.805Z,100105.25
2022-11-28T15:05:37.425Z,100094.66
2022-11-28T15:08:27.716Z,100091.44
2022-11-28T15:11:20.295Z,100093.59
2022-11-28T15:14:19.339Z,100098.09
2022-11-28T15:16:50.702Z,100092.94
2022-11-28T15:19:52.111Z,100099.94
2022-11-28T15:22:30.379Z,100094.59
2022-11-28T15:24:58.944Z,100103.22
2022-11-28T15:27:29.737Z,100096.38
2022-11-28T15:30:00.101Z,100091.13
2022-11-28T15:32:30.097Z,100102.75
2022-11-28T15:35:01.783Z,100099.56
2022-11-28T15:37:31.828Z,100096.41
2022-11-28T15:40:01.992Z,100100.53
2022-11-28T15:42:34.408Z,100098.37
2022-11-28T15:45:10.977Z,100090.97
2022-11-28T15:47:39.381Z,100103.19
2022-11-28T15:50:14.825Z,100095.41
2022-11-28T15:52:59.454Z,100106.53
2022-11-28T15:55:31.756Z,100104.09
2022-11-28T15:58:11.687Z,100102.75
2022-11-28T16:00:41.903Z,100102.56
2022-11-28T16:03:14.756Z,100107.56
2022-11-28T16:05:42.995Z,100109.56
2022-11-28T16:08:30.020Z,100114.50
2022-11-28T16:10:59.627Z,100115.53
2022-11-28T16:13:29.175Z,100115.28
2022-11-28T16:15:58.106Z,100127.63
2022-11-28T16:18:27.572Z,100125.06
2022-11-28T16:20:57.942Z,100122.06
2022-11-28T16:23:36.779Z,100119.41
2022-11-28T16:26:21.983Z,100121.25
2022-11-28T16:29:06.750Z,100122.69
2022-11-28T16:31:35.598Z,100120.53
2022-11-28T16:34:03.760Z,100123.69
2022-11-28T16:36:36.721Z,100109.16
2022-11-28T16:39:06.232Z,100114.78
2022-11-28T16:41:36.182Z,100111.00
2022-11-28T16:44:07.271Z,100108.69
2022-11-28T16:46:38.629Z,100113.50
2022-11-28T16:49:45.389Z,100114.00
2022-11-28T16:52:22.005Z,100115.78
2022-11-28T16:54:54.573Z,100114.78
2022-11-28T16:57:22.530Z,100112.50
2022-11-28T16:59:51.708Z,100113.06
2022-11-28T17:02:21.405Z,100109.66
2022-11-28T17:04:51.284Z,100114.97
2022-11-28T17:07:21.373Z,100117.22
2022-11-28T17:09:50.057Z,100114.22
2022-11-28T17:12:27.231Z,100121.66
2022-11-28T17:14:56.660Z,100121.91
2022-11-28T17:17:25.473Z,100118.69
2022-11-28T17:19:54.580Z,100120.62
2022-11-28T17:22:40.230Z,100117.41
2022-11-28T17:25:17.027Z,100115.59
2022-11-28T17:27:46.117Z,100113.50
2022-11-28T17:30:19.145Z,100108.78
2022-11-28T17:32:49.349Z,100116.16
2022-11-28T17:35:20.872Z,100113.50
2022-11-28T17:37:49.005Z,100114.38
2022-11-28T17:40:17.299Z,100120.00
2022-11-28T17:42:45.599Z,100117.38
2022-11-28T17:45:14.342Z,100116.69
2022-11-28T17:47:42.242Z,100121.53
2022-11-28T17:50:09.995Z,100120.16
2022-11-28T17:52:38.024Z,100114.50
2022-11-28T17:55:07.256Z,100123.38
2022-11-28T17:57:35.688Z,100121.06
2022-11-28T18:00:05.914Z,100123.13
2022-11-28T18:02:41.904Z,100126.13
2022-11-28T18:05:10.271Z,100116.22
2022-11-28T18:07:39.308Z,100120.12
2022-11-28T18:10:09.555Z,100120.12
2022-11-28T18:12:37.899Z,100121.87
2022-11-28T18:15:05.896Z,100122.78
2022-11-28T18:17:34.966Z,100119.22
2022-11-28T18:20:04.001Z,100119.09
2022-11-28T18:22:32.356Z,100118.97
2022-11-28T18:25:00.497Z,100120.91
2022-11-28T18:27:29.447Z,100124.41
2022-11-28T18:29:57.457Z,100123.25
2022-11-28T18:32:25.473Z,100122.22
2022-11-28T18:34:53.739Z,100129.50
2022-11-28T18:37:21.655Z,100123.16
2022-11-28T18:39:49.365Z,100134.09
2022-11-28T18:42:18.209Z,100130.75
2022-11-28T18:44:46.055Z,100132.25
2022-11-28T18:47:14.010Z,100121.31
2022-11-28T18:49:42.561Z,100126.97
2022-11-28T18:52:10.804Z,100125.34
2022-11-28T18:54:39.949Z,100129.84
2022-11-28T18:57:08.313Z,100129.50
2022-11-28T18:59:36.734Z,100128.22
2022-11-28T19:02:05.180Z,100126.59
2022-11-28T19:04:33.400Z,100129.59
2022-11-28T19:07:01.949Z,100128.22
2022-11-28T19:09:31.478Z,100127.06
2022-11-28T19:11:59.672Z,100126.97
2022-11-28T19:14:29.768Z,100115.88
2022-11-28T19:16:59.487Z,100125.69
2022-11-28T19:19:27.540Z,100123.72
2022-11-28T19:21:55.735Z,100123.84
2022-11-28T19:24:25.070Z,100119.56
2022-11-28T19:26:53.004Z,100122.91
2022-11-28T19:29:21.126Z,100122.78
2022-11-28T19:31:49.096Z,100120.94
2022-11-28T19:34:18.650Z,100119.47
2022-11-28T19:36:48.717Z,100123.94
2022-11-28T19:39:22.346Z,100124.97
2022-11-28T19:41:51.685Z,100127.06
2022-11-28T19:44:20.357Z,100125.34
2022-11-28T19:46:48.304Z,100128.69
2022-11-28T19:49:19.827Z,100131.19
2022-11-28T19:51:50.206Z,100121.28
2022-11-28T19:54:19.043Z,100122.91
2022-11-28T19:56:48.459Z,100125.44
2022-11-28T19:59:17.516Z,100127.41
2022-11-28T20:01:45.877Z,100124.38
2022-11-28T20:04:14.503Z,100121.97
2022-11-28T20:06:42.427Z,100121.16
2022-11-28T20:09:12.120Z,100124.66
2022-11-28T20:11:42.718Z,100117.03
2022-11-28T20:14:13.392Z,100121.28
2022-11-28T20:16:41.985Z,100119.09
2022-11-28T20:19:11.338Z,100118.28
2022-11-28T20:21:39.612Z,100118.41
2022-11-28T20:24:10.384Z,100119.34
2022-11-28T20:26:40.833Z,100117.97
2022-11-28T20:29:13.042Z,100119.66
2022-11-28T20:31:40.871Z,100112.88
2022-11-28T20:34:09.140Z,100118.53
2022-11-28T20:36:37.342Z,100111.84
2022-11-28T20:39:06.271Z,100108.50
2022-11-28T20:41:34.506Z,100108.16
2022-11-28T20:44:02.696Z,100106.69
2022-11-28T20:46:32.276Z,100107.91
2022-11-28T20:49:04.283Z,100105.06
2022-11-28T20:51:33.170Z,100102.75
2022-11-28T20:54:01.877Z,100102.41
2022-11-28T20:56:31.381Z,100104.03
2022-11-28T20:58:59.625Z,100099.75
2022-11-28T21:01:30.346Z,100104.00
2022-11-28T21:03:58.175Z,100099.06
2022-11-28T21:06:26.055Z,100103.66
2022-11-28T21:08:54.189Z,100105.37
2022-11-28T21:11:55.238Z,100113.59
2022-11-28T21:14:11.232Z,100119.69
2022-11-28T21:16:39.118Z,100114.63
2022-11-28T21:19:08.060Z,100112.19
2022-11-28T21:21:38.412Z,100114.84
2022-11-28T21:24:09.047Z,100111.97
2022-11-28T21:26:41.698Z,100109.09
2022-11-28T21:29:11.535Z,100116.00
2022-11-28T21:31:42.685Z,100117.84
2022-11-28T21:34:14.911Z,100119.34
2022-11-28T21:36:43.138Z,100113.12
2022-11-28T21:39:18.289Z,100108.28
2022-11-28T21:41:46.500Z,100114.03
2022-11-28T21:44:14.135Z,100113.31
2022-11-28T21:46:41.803Z,100119.09
2022-11-28T21:49:09.899Z,100113.94
2022-11-28T21:51:38.003Z,100120.81
2022-11-28T21:54:06.649Z,100120.72
2022-11-28T21:56:34.656Z,100117.12
2022-11-28T21:59:02.486Z,100117.59
2022-11-28T22:01:30.263Z,100124.16
2022-11-28T22:04:02.336Z,100129.50
2022-11-28T22:06:31.868Z,100133.03
2022-11-28T22:09:08.383Z,100130.62
2022-11-28T22:11:37.542Z,100135.47
2022-11-28T22:14:05.493Z,100129.38
2022-11-28T22:16:33.518Z,100126.97
2022-11-28T22:19:01.378Z,100122.66
2022-11-28T22:24:19.192Z,100122.09
2022-11-28T22:26:48.770Z,100119.47
2022-11-28T22:29:16.698Z,100122.34
2022-11-28T22:31:44.423Z,100120.72
2022-11-28T22:34:12.633Z,100117.47
2022-11-28T22:36:40.459Z,100123.22
2022-11-28T22:39:10.618Z,100118.16
2022-11-28T22:41:38.851Z,100117.12
2022-11-28T22:44:06.666Z,100116.06
2022-11-28T22:46:34.491Z,100114.00
2022-11-28T22:49:03.246Z,100124.13
2022-11-28T22:51:31.366Z,100122.00
2022-11-28T22:54:00.839Z,100120.09
2022-11-28T22:56:31.383Z,100120.66
2022-11-28T22:58:59.925Z,100123.94
2022-11-28T23:01:29.976Z,100122.84
2022-11-28T23:03:59.223Z,100118.16
2022-11-28T23:06:29.815Z,100123.69
2022-11-28T23:08:59.189Z,100121.84
2022-11-28T23:11:29.616Z,100122.41
2022-11-28T23:13:59.014Z,100122.06
2022-11-28T23:16:30.710Z,100126.72
2022-11-28T23:19:00.798Z,100130.62
2022-11-28T23:21:30.654Z,100122.75
2022-11-28T23:23:58.626Z,100118.53
2022-11-28T23:26:28.101Z,100122.31
2022-11-28T23:28:56.303Z,100117.63
2022-11-28T23:31:29.645Z,100120.94
2022-11-28T23:33:58.402Z,100118.50
2022-11-28T23:36:34.631Z,100119.28
2022-11-28T23:39:10.590Z,100118.63
2022-11-28T23:41:39.071Z,100116.28
2022-11-28T23:44:07.090Z,100119.19
2022-11-28T23:46:35.566Z,100113.91
2022-11-28T23:49:05.415Z,100119.88
2022-11-28T23:51:33.788Z,100120.06
2022-11-28T23:54:01.570Z,100128.19
2022-11-28T23:56:31.177Z,100127.03
2022-11-28T23:59:01.285Z,100125.78
